McArthur, Arkansas
Current Conditions -  °F | °C
As of 6:53 PM on Wednesday 17 Dec 2014 (Local Time) from KLLQ Reporting Station
Overcast Overcast  
Wind Chill: 43°   Ceiling: 8000
Heat Index: 43°   Visibility: 10mi
Dew Point: 35°   Wind: 3mph
Humidity: 74%   Direction: 60°ENE
Pressure: 30.23"   Gusts: NA
Location:  33.6386°N, 91.3646°W
Report Text: KLLQ 180053Z AUTO 06003KT 10SM OVC080 06/02 A3023 RMK AO2 SLP237 T00610017
Loading
Personal Weather Stations






























Interactive Weather Map New forecast layout! Learn more

10-Day Weather Forecast

Advertisements
Track Severe Weather on mobile